sensor_id;sensor_type;location;lat;lon;timestamp;P1;durP1;ratioP1;P2;durP2;ratioP2
60372;SDS011;46216;52.220;5.134;2022-11-04T00:01:31;5.53;;;1.10;;
60372;SDS011;46216;52.220;5.134;2022-11-04T00:03:57;3.63;;;0.80;;
60372;SDS011;46216;52.220;5.134;2022-11-04T00:06:24;7.03;;;1.17;;
60372;SDS011;46216;52.220;5.134;2022-11-04T00:08:50;3.50;;;1.05;;
60372;SDS011;46216;52.220;5.134;2022-11-04T00:11:17;5.50;;;1.10;;
60372;SDS011;46216;52.220;5.134;2022-11-04T00:14:01;4.57;;;0.80;;
60372;SDS011;46216;52.220;5.134;2022-11-04T00:16:27;6.38;;;1.00;;
60372;SDS011;46216;52.220;5.134;2022-11-04T00:19:11;4.75;;;1.20;;
60372;SDS011;46216;52.220;5.134;2022-11-04T00:21:36;7.30;;;1.00;;
60372;SDS011;46216;52.220;5.134;2022-11-04T00:24:20;5.55;;;1.27;;
60372;SDS011;46216;52.220;5.134;2022-11-04T00:27:04;4.30;;;1.17;;
60372;SDS011;46216;52.220;5.134;2022-11-04T00:29:48;7.00;;;1.30;;
60372;SDS011;46216;52.220;5.134;2022-11-04T00:32:13;2.85;;;1.10;;
60372;SDS011;46216;52.220;5.134;2022-11-04T00:34:57;8.07;;;1.40;;
60372;SDS011;46216;52.220;5.134;2022-11-04T00:37:22;11.90;;;1.42;;
60372;SDS011;46216;52.220;5.134;2022-11-04T00:39:48;7.25;;;1.30;;
60372;SDS011;46216;52.220;5.134;2022-11-04T00:42:13;8.82;;;1.40;;
60372;SDS011;46216;52.220;5.134;2022-11-04T00:44:38;4.22;;;1.30;;
60372;SDS011;46216;52.220;5.134;2022-11-04T00:47:03;10.40;;;1.40;;
60372;SDS011;46216;52.220;5.134;2022-11-04T00:49:29;9.65;;;1.30;;
60372;SDS011;46216;52.220;5.134;2022-11-04T00:51:55;5.60;;;1.10;;
60372;SDS011;46216;52.220;5.134;2022-11-04T00:54:20;1.70;;;0.80;;
60372;SDS011;46216;52.220;5.134;2022-11-04T00:56:45;6.95;;;0.90;;
60372;SDS011;46216;52.220;5.134;2022-11-04T00:59:12;3.33;;;0.80;;
60372;SDS011;46216;52.220;5.134;2022-11-04T01:01:38;4.03;;;0.80;;
60372;SDS011;46216;52.220;5.134;2022-11-04T01:04:03;3.92;;;0.68;;
60372;SDS011;46216;52.220;5.134;2022-11-04T01:06:29;3.85;;;0.68;;
60372;SDS011;46216;52.220;5.134;2022-11-04T01:08:57;2.72;;;0.70;;
60372;SDS011;46216;52.220;5.134;2022-11-04T01:11:25;1.58;;;0.70;;
60372;SDS011;46216;52.220;5.134;2022-11-04T01:13:53;3.83;;;0.90;;
60372;SDS011;46216;52.220;5.134;2022-11-04T01:16:18;3.60;;;0.75;;
60372;SDS011;46216;52.220;5.134;2022-11-04T01:18:44;4.63;;;0.82;;
60372;SDS011;46216;52.220;5.134;2022-11-04T01:21:10;3.72;;;1.00;;
60372;SDS011;46216;52.220;5.134;2022-11-04T01:23:37;3.65;;;1.27;;
60372;SDS011;46216;52.220;5.134;2022-11-04T01:26:04;4.55;;;1.00;;
60372;SDS011;46216;52.220;5.134;2022-11-04T01:28:33;3.33;;;1.15;;
60372;SDS011;46216;52.220;5.134;2022-11-04T01:30:58;5.32;;;0.98;;
60372;SDS011;46216;52.220;5.134;2022-11-04T01:33:24;4.03;;;0.90;;
60372;SDS011;46216;52.220;5.134;2022-11-04T01:35:49;2.78;;;1.02;;
60372;SDS011;46216;52.220;5.134;2022-11-04T01:38:15;2.63;;;0.82;;
60372;SDS011;46216;52.220;5.134;2022-11-04T01:40:41;3.10;;;0.88;;
60372;SDS011;46216;52.220;5.134;2022-11-04T01:43:13;5.18;;;1.65;;
60372;SDS011;46216;52.220;5.134;2022-11-04T01:45:41;2.33;;;0.90;;
60372;SDS011;46216;52.220;5.134;2022-11-04T01:48:19;2.78;;;0.73;;
60372;SDS011;46216;52.220;5.134;2022-11-04T01:50:50;3.63;;;1.10;;
60372;SDS011;46216;52.220;5.134;2022-11-04T01:53:19;3.85;;;1.08;;
60372;SDS011;46216;52.220;5.134;2022-11-04T01:55:50;4.30;;;1.35;;
60372;SDS011;46216;52.220;5.134;2022-11-04T01:58:20;7.53;;;1.40;;
60372;SDS011;46216;52.220;5.134;2022-11-04T02:00:48;5.30;;;1.40;;
60372;SDS011;46216;52.220;5.134;2022-11-04T02:03:22;3.45;;;1.38;;
60372;SDS011;46216;52.220;5.134;2022-11-04T02:05:56;4.78;;;1.02;;
60372;SDS011;46216;52.220;5.134;2022-11-04T02:08:22;2.70;;;1.17;;
60372;SDS011;46216;52.220;5.134;2022-11-04T02:11:06;2.53;;;0.80;;
60372;SDS011;46216;52.220;5.134;2022-11-04T02:13:32;5.03;;;0.70;;
60372;SDS011;46216;52.220;5.134;2022-11-04T02:16:04;2.55;;;0.70;;
60372;SDS011;46216;52.220;5.134;2022-11-04T02:22:05;1.05;;;0.60;;
60372;SDS011;46216;52.220;5.134;2022-11-04T02:27:32;3.83;;;0.70;;
60372;SDS011;46216;52.220;5.134;2022-11-04T02:38:28;2.45;;;0.70;;
60372;SDS011;46216;52.220;5.134;2022-11-04T02:41:03;5.25;;;1.00;;
60372;SDS011;46216;52.220;5.134;2022-11-04T02:43:44;1.42;;;0.70;;
60372;SDS011;46216;52.220;5.134;2022-11-04T02:52:09;6.40;;;0.80;;
60372;SDS011;46216;52.220;5.134;2022-11-04T02:55:04;6.00;;;1.05;;
60372;SDS011;46216;52.220;5.134;2022-11-04T02:57:29;4.82;;;0.75;;
60372;SDS011;46216;52.220;5.134;2022-11-04T03:00:02;4.90;;;0.75;;
60372;SDS011;46216;52.220;5.134;2022-11-04T03:02:45;1.38;;;0.80;;
60372;SDS011;46216;52.220;5.134;2022-11-04T03:05:24;5.88;;;1.00;;
60372;SDS011;46216;52.220;5.134;2022-11-04T03:07:52;2.05;;;0.90;;
60372;SDS011;46216;52.220;5.134;2022-11-04T03:10:23;2.22;;;0.93;;
60372;SDS011;46216;52.220;5.134;2022-11-04T03:12:57;3.65;;;1.05;;
60372;SDS011;46216;52.220;5.134;2022-11-04T03:15:30;2.35;;;0.85;;
60372;SDS011;46216;52.220;5.134;2022-11-04T03:18:01;3.50;;;1.00;;
60372;SDS011;46216;52.220;5.134;2022-11-04T03:20:37;2.67;;;1.02;;
60372;SDS011;46216;52.220;5.134;2022-11-04T03:23:05;5.95;;;1.10;;
60372;SDS011;46216;52.220;5.134;2022-11-04T03:25:49;5.35;;;1.05;;
60372;SDS011;46216;52.220;5.134;2022-11-04T03:28:34;4.00;;;0.90;;
60372;SDS011;46216;52.220;5.134;2022-11-04T03:31:22;7.50;;;1.17;;
60372;SDS011;46216;52.220;5.134;2022-11-04T03:33:57;4.85;;;1.20;;
60372;SDS011;46216;52.220;5.134;2022-11-04T03:36:22;3.92;;;1.27;;
60372;SDS011;46216;52.220;5.134;2022-11-04T03:38:48;3.03;;;1.30;;
60372;SDS011;46216;52.220;5.134;2022-11-04T03:41:17;6.97;;;1.50;;
60372;SDS011;46216;52.220;5.134;2022-11-04T03:43:50;7.05;;;1.83;;
60372;SDS011;46216;52.220;5.134;2022-11-04T03:46:15;5.55;;;2.35;;
60372;SDS011;46216;52.220;5.134;2022-11-04T03:48:40;4.63;;;1.70;;
60372;SDS011;46216;52.220;5.134;2022-11-04T03:51:08;4.80;;;1.60;;
60372;SDS011;46216;52.220;5.134;2022-11-04T03:53:34;3.10;;;2.10;;
60372;SDS011;46216;52.220;5.134;2022-11-04T03:56:13;6.55;;;1.85;;
60372;SDS011;46216;52.220;5.134;2022-11-04T03:59:09;6.55;;;2.10;;
60372;SDS011;46216;52.220;5.134;2022-11-04T04:01:53;6.65;;;1.92;;
60372;SDS011;46216;52.220;5.134;2022-11-04T04:07:21;3.63;;;1.92;;
60372;SDS011;46216;52.220;5.134;2022-11-04T04:10:09;4.65;;;2.50;;
60372;SDS011;46216;52.220;5.134;2022-11-04T04:12:59;6.38;;;2.80;;
60372;SDS011;46216;52.220;5.134;2022-11-04T04:15:31;6.93;;;3.10;;
60372;SDS011;46216;52.220;5.134;2022-11-04T04:18:09;6.68;;;3.50;;
60372;SDS011;46216;52.220;5.134;2022-11-04T04:20:38;8.70;;;4.43;;
60372;SDS011;46216;52.220;5.134;2022-11-04T04:23:08;10.43;;;4.38;;
60372;SDS011;46216;52.220;5.134;2022-11-04T04:25:59;8.73;;;4.95;;
60372;SDS011;46216;52.220;5.134;2022-11-04T04:28:47;9.77;;;5.50;;
60372;SDS011;46216;52.220;5.134;2022-11-04T04:31:15;11.15;;;6.20;;
60372;SDS011;46216;52.220;5.134;2022-11-04T04:34:02;11.43;;;6.38;;
60372;SDS011;46216;52.220;5.134;2022-11-04T04:36:28;12.65;;;7.35;;
60372;SDS011;46216;52.220;5.134;2022-11-04T04:38:56;13.23;;;7.10;;
60372;SDS011;46216;52.220;5.134;2022-11-04T04:41:45;12.98;;;7.32;;
60372;SDS011;46216;52.220;5.134;2022-11-04T04:44:31;14.27;;;8.00;;
60372;SDS011;46216;52.220;5.134;2022-11-04T04:47:20;13.05;;;7.78;;
60372;SDS011;46216;52.220;5.134;2022-11-04T04:49:51;14.02;;;7.95;;
60372;SDS011;46216;52.220;5.134;2022-11-04T04:52:21;18.17;;;8.63;;
60372;SDS011;46216;52.220;5.134;2022-11-04T04:54:48;17.77;;;8.43;;
60372;SDS011;46216;52.220;5.134;2022-11-04T04:57:14;17.02;;;8.65;;
60372;SDS011;46216;52.220;5.134;2022-11-04T04:59:40;18.38;;;9.60;;
60372;SDS011;46216;52.220;5.134;2022-11-04T05:02:05;21.05;;;9.80;;
60372;SDS011;46216;52.220;5.134;2022-11-04T05:04:30;19.27;;;10.00;;
60372;SDS011;46216;52.220;5.134;2022-11-04T05:06:56;17.88;;;9.73;;
60372;SDS011;46216;52.220;5.134;2022-11-04T05:09:21;19.80;;;10.43;;
60372;SDS011;46216;52.220;5.134;2022-11-04T05:11:46;23.23;;;11.43;;
60372;SDS011;46216;52.220;5.134;2022-11-04T05:14:12;19.13;;;10.70;;
60372;SDS011;46216;52.220;5.134;2022-11-04T05:16:37;21.98;;;11.40;;
60372;SDS011;46216;52.220;5.134;2022-11-04T05:19:03;26.05;;;11.23;;
60372;SDS011;46216;52.220;5.134;2022-11-04T05:21:28;26.95;;;11.30;;
60372;SDS011;46216;52.220;5.134;2022-11-04T05:23:53;23.77;;;12.00;;
60372;SDS011;46216;52.220;5.134;2022-11-04T05:26:18;26.33;;;13.13;;
60372;SDS011;46216;52.220;5.134;2022-11-04T05:28:44;26.15;;;12.93;;
60372;SDS011;46216;52.220;5.134;2022-11-04T05:31:09;32.72;;;12.90;;
60372;SDS011;46216;52.220;5.134;2022-11-04T05:33:35;27.70;;;13.75;;
60372;SDS011;46216;52.220;5.134;2022-11-04T05:36:14;28.88;;;13.65;;
60372;SDS011;46216;52.220;5.134;2022-11-04T05:38:40;32.00;;;13.05;;
60372;SDS011;46216;52.220;5.134;2022-11-04T05:41:07;36.70;;;14.07;;
60372;SDS011;46216;52.220;5.134;2022-11-04T05:43:34;32.30;;;13.95;;
60372;SDS011;46216;52.220;5.134;2022-11-04T05:46:00;32.22;;;14.15;;
60372;SDS011;46216;52.220;5.134;2022-11-04T05:48:26;33.03;;;13.68;;
60372;SDS011;46216;52.220;5.134;2022-11-04T05:50:52;30.20;;;13.77;;
60372;SDS011;46216;52.220;5.134;2022-11-04T05:53:18;34.13;;;13.55;;
60372;SDS011;46216;52.220;5.134;2022-11-04T05:55:43;32.83;;;13.32;;
60372;SDS011;46216;52.220;5.134;2022-11-04T05:58:09;28.08;;;14.07;;
60372;SDS011;46216;52.220;5.134;2022-11-04T06:00:34;31.15;;;13.38;;
60372;SDS011;46216;52.220;5.134;2022-11-04T06:03:00;26.25;;;13.18;;
60372;SDS011;46216;52.220;5.134;2022-11-04T06:05:26;30.63;;;14.60;;
60372;SDS011;46216;52.220;5.134;2022-11-04T06:07:52;29.27;;;14.40;;
60372;SDS011;46216;52.220;5.134;2022-11-04T06:10:17;27.13;;;13.88;;
60372;SDS011;46216;52.220;5.134;2022-11-04T06:12:43;40.17;;;13.27;;
60372;SDS011;46216;52.220;5.134;2022-11-04T06:15:08;28.20;;;13.77;;
60372;SDS011;46216;52.220;5.134;2022-11-04T06:17:34;31.25;;;13.48;;
60372;SDS011;46216;52.220;5.134;2022-11-04T06:19:59;24.88;;;13.48;;
60372;SDS011;46216;52.220;5.134;2022-11-04T06:22:24;28.30;;;13.43;;
60372;SDS011;46216;52.220;5.134;2022-11-04T06:24:50;32.03;;;13.52;;
60372;SDS011;46216;52.220;5.134;2022-11-04T06:27:15;25.70;;;13.07;;
60372;SDS011;46216;52.220;5.134;2022-11-04T06:29:41;26.45;;;12.88;;
60372;SDS011;46216;52.220;5.134;2022-11-04T06:32:07;29.60;;;14.23;;
60372;SDS011;46216;52.220;5.134;2022-11-04T06:34:37;25.67;;;13.45;;
60372;SDS011;46216;52.220;5.134;2022-11-04T06:37:03;29.90;;;14.02;;
60372;SDS011;46216;52.220;5.134;2022-11-04T06:39:28;26.40;;;13.77;;
60372;SDS011;46216;52.220;5.134;2022-11-04T06:41:54;25.25;;;14.00;;
60372;SDS011;46216;52.220;5.134;2022-11-04T06:44:19;32.88;;;14.07;;
60372;SDS011;46216;52.220;5.134;2022-11-04T06:46:44;27.08;;;13.80;;
60372;SDS011;46216;52.220;5.134;2022-11-04T06:49:11;25.25;;;14.20;;
60372;SDS011;46216;52.220;5.134;2022-11-04T06:51:38;32.60;;;15.50;;
60372;SDS011;46216;52.220;5.134;2022-11-04T06:54:03;25.90;;;15.52;;
60372;SDS011;46216;52.220;5.134;2022-11-04T06:56:29;35.05;;;16.42;;
60372;SDS011;46216;52.220;5.134;2022-11-04T06:58:55;32.67;;;15.43;;
60372;SDS011;46216;52.220;5.134;2022-11-04T07:01:21;30.25;;;16.90;;
60372;SDS011;46216;52.220;5.134;2022-11-04T07:03:49;31.20;;;15.75;;
60372;SDS011;46216;52.220;5.134;2022-11-04T07:06:16;30.83;;;16.00;;
60372;SDS011;46216;52.220;5.134;2022-11-04T07:08:42;35.33;;;16.67;;
60372;SDS011;46216;52.220;5.134;2022-11-04T07:11:07;33.88;;;15.90;;
60372;SDS011;46216;52.220;5.134;2022-11-04T07:13:33;33.88;;;16.00;;
60372;SDS011;46216;52.220;5.134;2022-11-04T07:15:58;31.48;;;16.67;;
60372;SDS011;46216;52.220;5.134;2022-11-04T07:18:24;34.67;;;15.77;;
60372;SDS011;46216;52.220;5.134;2022-11-04T07:20:50;34.47;;;16.50;;
60372;SDS011;46216;52.220;5.134;2022-11-04T07:23:15;34.05;;;17.40;;
60372;SDS011;46216;52.220;5.134;2022-11-04T07:25:41;34.85;;;16.60;;
60372;SDS011;46216;52.220;5.134;2022-11-04T07:28:07;33.28;;;16.48;;
60372;SDS011;46216;52.220;5.134;2022-11-04T07:30:32;30.08;;;15.68;;
60372;SDS011;46216;52.220;5.134;2022-11-04T07:32:58;30.50;;;15.73;;
60372;SDS011;46216;52.220;5.134;2022-11-04T07:35:23;27.70;;;15.00;;
60372;SDS011;46216;52.220;5.134;2022-11-04T07:37:48;30.60;;;15.15;;
60372;SDS011;46216;52.220;5.134;2022-11-04T07:40:14;28.70;;;15.07;;
60372;SDS011;46216;52.220;5.134;2022-11-04T07:42:39;29.80;;;15.38;;
60372;SDS011;46216;52.220;5.134;2022-11-04T07:45:05;26.40;;;14.98;;
60372;SDS011;46216;52.220;5.134;2022-11-04T07:47:31;25.60;;;15.60;;
60372;SDS011;46216;52.220;5.134;2022-11-04T07:49:56;29.15;;;16.27;;
60372;SDS011;46216;52.220;5.134;2022-11-04T07:52:22;30.80;;;15.77;;
60372;SDS011;46216;52.220;5.134;2022-11-04T07:54:48;27.83;;;14.90;;
60372;SDS011;46216;52.220;5.134;2022-11-04T07:57:13;27.77;;;15.13;;
60372;SDS011;46216;52.220;5.134;2022-11-04T07:59:39;27.58;;;15.77;;
60372;SDS011;46216;52.220;5.134;2022-11-04T08:02:04;27.38;;;14.63;;
60372;SDS011;46216;52.220;5.134;2022-11-04T08:04:30;26.75;;;15.60;;
60372;SDS011;46216;52.220;5.134;2022-11-04T08:06:55;28.10;;;16.35;;
60372;SDS011;46216;52.220;5.134;2022-11-04T08:09:20;28.83;;;14.48;;
60372;SDS011;46216;52.220;5.134;2022-11-04T08:11:47;24.67;;;14.88;;
60372;SDS011;46216;52.220;5.134;2022-11-04T08:14:12;29.08;;;15.57;;
60372;SDS011;46216;52.220;5.134;2022-11-04T08:16:38;28.63;;;14.63;;
60372;SDS011;46216;52.220;5.134;2022-11-04T08:19:03;27.75;;;14.32;;
60372;SDS011;46216;52.220;5.134;2022-11-04T08:21:29;29.05;;;14.68;;
60372;SDS011;46216;52.220;5.134;2022-11-04T08:23:56;25.95;;;14.75;;
60372;SDS011;46216;52.220;5.134;2022-11-04T08:26:22;28.63;;;14.57;;
60372;SDS011;46216;52.220;5.134;2022-11-04T08:28:48;24.13;;;14.65;;
60372;SDS011;46216;52.220;5.134;2022-11-04T08:31:16;23.83;;;13.23;;
60372;SDS011;46216;52.220;5.134;2022-11-04T08:33:44;22.60;;;13.38;;
60372;SDS011;46216;52.220;5.134;2022-11-04T08:36:14;32.10;;;14.35;;
60372;SDS011;46216;52.220;5.134;2022-11-04T08:38:42;26.08;;;14.00;;
60372;SDS011;46216;52.220;5.134;2022-11-04T08:41:08;26.52;;;13.23;;
60372;SDS011;46216;52.220;5.134;2022-11-04T08:43:34;23.83;;;13.05;;
60372;SDS011;46216;52.220;5.134;2022-11-04T08:46:00;24.33;;;12.68;;
60372;SDS011;46216;52.220;5.134;2022-11-04T08:48:26;21.83;;;12.13;;
60372;SDS011;46216;52.220;5.134;2022-11-04T08:50:52;24.38;;;12.77;;
60372;SDS011;46216;52.220;5.134;2022-11-04T08:53:20;28.13;;;12.23;;
60372;SDS011;46216;52.220;5.134;2022-11-04T08:55:45;22.70;;;12.48;;
60372;SDS011;46216;52.220;5.134;2022-11-04T08:58:11;23.30;;;12.23;;
60372;SDS011;46216;52.220;5.134;2022-11-04T09:00:36;24.27;;;12.98;;
60372;SDS011;46216;52.220;5.134;2022-11-04T09:03:02;22.98;;;12.38;;
60372;SDS011;46216;52.220;5.134;2022-11-04T09:05:28;22.63;;;12.80;;
60372;SDS011;46216;52.220;5.134;2022-11-04T09:07:54;23.63;;;12.48;;
60372;SDS011;46216;52.220;5.134;2022-11-04T09:10:19;23.25;;;12.57;;
60372;SDS011;46216;52.220;5.134;2022-11-04T09:12:45;20.77;;;12.65;;
60372;SDS011;46216;52.220;5.134;2022-11-04T09:15:11;22.38;;;12.98;;
60372;SDS011;46216;52.220;5.134;2022-11-04T09:17:36;22.02;;;13.02;;
60372;SDS011;46216;52.220;5.134;2022-11-04T09:20:02;23.15;;;14.45;;
60372;SDS011;46216;52.220;5.134;2022-11-04T09:22:28;27.58;;;14.40;;
60372;SDS011;46216;52.220;5.134;2022-11-04T09:24:53;27.42;;;13.35;;
60372;SDS011;46216;52.220;5.134;2022-11-04T09:27:19;21.63;;;13.60;;
60372;SDS011;46216;52.220;5.134;2022-11-04T09:29:44;20.65;;;13.68;;
60372;SDS011;46216;52.220;5.134;2022-11-04T09:32:10;21.00;;;13.38;;
60372;SDS011;46216;52.220;5.134;2022-11-04T09:34:35;20.67;;;13.32;;
60372;SDS011;46216;52.220;5.134;2022-11-04T09:37:00;21.30;;;13.27;;
60372;SDS011;46216;52.220;5.134;2022-11-04T09:39:26;19.75;;;13.13;;
60372;SDS011;46216;52.220;5.134;2022-11-04T09:44:39;15.55;;;12.30;;
60372;SDS011;46216;52.220;5.134;2022-11-04T09:47:12;17.10;;;12.35;;
60372;SDS011;46216;52.220;5.134;2022-11-04T09:49:40;16.75;;;12.02;;
60372;SDS011;46216;52.220;5.134;2022-11-04T09:52:16;17.20;;;12.18;;
60372;SDS011;46216;52.220;5.134;2022-11-04T09:54:49;19.02;;;12.02;;
60372;SDS011;46216;52.220;5.134;2022-11-04T09:57:20;18.55;;;11.95;;
60372;SDS011;46216;52.220;5.134;2022-11-04T09:59:45;19.77;;;12.43;;
60372;SDS011;46216;52.220;5.134;2022-11-04T10:05:26;17.33;;;11.18;;
60372;SDS011;46216;52.220;5.134;2022-11-04T10:18:49;12.38;;;8.65;;
60372;SDS011;46216;52.220;5.134;2022-11-04T10:32:21;12.85;;;8.98;;
60372;SDS011;46216;52.220;5.134;2022-11-04T10:34:53;12.93;;;9.35;;
60372;SDS011;46216;52.220;5.134;2022-11-04T10:37:23;11.57;;;9.13;;
60372;SDS011;46216;52.220;5.134;2022-11-04T10:39:50;15.20;;;9.45;;
60372;SDS011;46216;52.220;5.134;2022-11-04T10:42:21;13.93;;;9.85;;
60372;SDS011;46216;52.220;5.134;2022-11-04T10:44:48;14.65;;;9.32;;
60372;SDS011;46216;52.220;5.134;2022-11-04T10:50:13;13.32;;;9.57;;
60372;SDS011;46216;52.220;5.134;2022-11-04T10:55:53;12.73;;;8.80;;
60372;SDS011;46216;52.220;5.134;2022-11-04T10:58:27;14.20;;;8.82;;
60372;SDS011;46216;52.220;5.134;2022-11-04T11:00:55;14.02;;;8.50;;
60372;SDS011;46216;52.220;5.134;2022-11-04T11:08:39;9.57;;;7.43;;
60372;SDS011;46216;52.220;5.134;2022-11-04T11:11:08;9.27;;;6.50;;
60372;SDS011;46216;52.220;5.134;2022-11-04T11:13:35;11.68;;;6.10;;
60372;SDS011;46216;52.220;5.134;2022-11-04T11:16:04;8.40;;;5.90;;
60372;SDS011;46216;52.220;5.134;2022-11-04T11:18:33;8.55;;;5.93;;
60372;SDS011;46216;52.220;5.134;2022-11-04T11:21:05;10.77;;;6.38;;
60372;SDS011;46216;52.220;5.134;2022-11-04T11:26:07;10.25;;;6.60;;
60372;SDS011;46216;52.220;5.134;2022-11-04T11:28:34;9.35;;;6.35;;
60372;SDS011;46216;52.220;5.134;2022-11-04T11:31:07;11.40;;;6.78;;
60372;SDS011;46216;52.220;5.134;2022-11-04T11:33:45;10.70;;;6.72;;
60372;SDS011;46216;52.220;5.134;2022-11-04T11:36:18;8.23;;;5.93;;
60372;SDS011;46216;52.220;5.134;2022-11-04T11:41:26;10.07;;;5.72;;
60372;SDS011;46216;52.220;5.134;2022-11-04T11:44:00;9.27;;;5.40;;
60372;SDS011;46216;52.220;5.134;2022-11-04T11:46:31;7.45;;;4.93;;
60372;SDS011;46216;52.220;5.134;2022-11-04T11:49:00;6.63;;;4.25;;
60372;SDS011;46216;52.220;5.134;2022-11-04T11:51:37;7.80;;;4.75;;
60372;SDS011;46216;52.220;5.134;2022-11-04T11:56:58;8.40;;;4.78;;
60372;SDS011;46216;52.220;5.134;2022-11-04T12:05:38;5.90;;;3.90;;
60372;SDS011;46216;52.220;5.134;2022-11-04T12:13:59;10.13;;;5.25;;
60372;SDS011;46216;52.220;5.134;2022-11-04T12:16:45;9.32;;;5.10;;
60372;SDS011;46216;52.220;5.134;2022-11-04T12:19:32;8.48;;;5.05;;
60372;SDS011;46216;52.220;5.134;2022-11-04T12:25:13;9.82;;;5.60;;
60372;SDS011;46216;52.220;5.134;2022-11-04T12:28:05;8.38;;;4.95;;
60372;SDS011;46216;52.220;5.134;2022-11-04T12:31:02;7.40;;;5.03;;
60372;SDS011;46216;52.220;5.134;2022-11-04T12:36:44;6.18;;;3.90;;
60372;SDS011;46216;52.220;5.134;2022-11-04T12:42:15;6.43;;;2.70;;
60372;SDS011;46216;52.220;5.134;2022-11-04T12:44:49;4.22;;;2.63;;
60372;SDS011;46216;52.220;5.134;2022-11-04T12:47:41;4.30;;;2.08;;
60372;SDS011;46216;52.220;5.134;2022-11-04T12:56:00;2.20;;;1.30;;
60372;SDS011;46216;52.220;5.134;2022-11-04T13:01:04;3.35;;;1.10;;
60372;SDS011;46216;52.220;5.134;2022-11-04T13:03:35;2.80;;;1.15;;
60372;SDS011;46216;52.220;5.134;2022-11-04T13:12:10;3.90;;;1.60;;
60372;SDS011;46216;52.220;5.134;2022-11-04T13:14:52;4.32;;;1.42;;
60372;SDS011;46216;52.220;5.134;2022-11-04T13:17:23;4.32;;;1.58;;
60372;SDS011;46216;52.220;5.134;2022-11-04T13:20:04;3.92;;;1.13;;
60372;SDS011;46216;52.220;5.134;2022-11-04T13:22:46;3.47;;;1.20;;
60372;SDS011;46216;52.220;5.134;2022-11-04T13:28:01;2.00;;;1.00;;
60372;SDS011;46216;52.220;5.134;2022-11-04T13:30:39;2.13;;;0.90;;
60372;SDS011;46216;52.220;5.134;2022-11-04T13:33:24;3.45;;;1.10;;
60372;SDS011;46216;52.220;5.134;2022-11-04T13:36:04;3.28;;;1.00;;
60372;SDS011;46216;52.220;5.134;2022-11-04T13:38:40;1.83;;;0.80;;
60372;SDS011;46216;52.220;5.134;2022-11-04T13:44:27;5.47;;;1.00;;
60372;SDS011;46216;52.220;5.134;2022-11-04T13:46:58;2.65;;;0.80;;
60372;SDS011;46216;52.220;5.134;2022-11-04T13:49:28;2.92;;;0.80;;
60372;SDS011;46216;52.220;5.134;2022-11-04T13:54:37;1.98;;;0.90;;
60372;SDS011;46216;52.220;5.134;2022-11-04T13:57:14;3.08;;;1.13;;
60372;SDS011;46216;52.220;5.134;2022-11-04T13:59:42;2.53;;;0.68;;
60372;SDS011;46216;52.220;5.134;2022-11-04T14:02:37;1.77;;;0.70;;
60372;SDS011;46216;52.220;5.134;2022-11-04T14:18:28;4.80;;;0.90;;
60372;SDS011;46216;52.220;5.134;2022-11-04T14:21:08;3.05;;;0.70;;
60372;SDS011;46216;52.220;5.134;2022-11-04T14:23:45;4.15;;;0.98;;
60372;SDS011;46216;52.220;5.134;2022-11-04T14:26:13;0.80;;;0.60;;
60372;SDS011;46216;52.220;5.134;2022-11-04T14:28:42;2.70;;;0.77;;
60372;SDS011;46216;52.220;5.134;2022-11-04T14:31:10;2.28;;;0.75;;
60372;SDS011;46216;52.220;5.134;2022-11-04T14:33:53;2.78;;;0.60;;
60372;SDS011;46216;52.220;5.134;2022-11-04T14:44:37;4.07;;;2.03;;
60372;SDS011;46216;52.220;5.134;2022-11-04T14:46:56;2.83;;;1.30;;
60372;SDS011;46216;52.220;5.134;2022-11-04T14:52:02;3.95;;;1.15;;
60372;SDS011;46216;52.220;5.134;2022-11-04T14:54:29;3.08;;;1.10;;
60372;SDS011;46216;52.220;5.134;2022-11-04T14:57:12;1.73;;;1.00;;
60372;SDS011;46216;52.220;5.134;2022-11-04T14:59:45;2.85;;;1.00;;
60372;SDS011;46216;52.220;5.134;2022-11-04T15:02:16;2.85;;;1.00;;
60372;SDS011;46216;52.220;5.134;2022-11-04T15:04:44;3.53;;;1.20;;
60372;SDS011;46216;52.220;5.134;2022-11-04T15:07:23;1.98;;;0.93;;
60372;SDS011;46216;52.220;5.134;2022-11-04T15:09:55;3.88;;;0.73;;
60372;SDS011;46216;52.220;5.134;2022-11-04T15:12:20;2.22;;;0.82;;
60372;SDS011;46216;52.220;5.134;2022-11-04T15:17:48;2.35;;;0.77;;
60372;SDS011;46216;52.220;5.134;2022-11-04T15:20:20;2.67;;;0.90;;
60372;SDS011;46216;52.220;5.134;2022-11-04T15:22:48;5.25;;;1.00;;
60372;SDS011;46216;52.220;5.134;2022-11-04T15:25:14;2.83;;;1.23;;
60372;SDS011;46216;52.220;5.134;2022-11-04T15:27:40;3.13;;;1.30;;
60372;SDS011;46216;52.220;5.134;2022-11-04T15:30:17;3.38;;;1.02;;
60372;SDS011;46216;52.220;5.134;2022-11-04T15:35:41;3.20;;;1.05;;
60372;SDS011;46216;52.220;5.134;2022-11-04T15:38:08;2.28;;;1.00;;
60372;SDS011;46216;52.220;5.134;2022-11-04T15:40:36;4.22;;;1.10;;
60372;SDS011;46216;52.220;5.134;2022-11-04T15:43:03;6.50;;;1.13;;
60372;SDS011;46216;52.220;5.134;2022-11-04T15:45:37;2.92;;;0.90;;
60372;SDS011;46216;52.220;5.134;2022-11-04T15:51:07;2.75;;;1.10;;
60372;SDS011;46216;52.220;5.134;2022-11-04T15:56:15;2.80;;;1.30;;
60372;SDS011;46216;52.220;5.134;2022-11-04T15:58:43;3.20;;;1.33;;
60372;SDS011;46216;52.220;5.134;2022-11-04T16:01:13;5.32;;;2.20;;
60372;SDS011;46216;52.220;5.134;2022-11-04T16:03:46;7.65;;;3.30;;
60372;SDS011;46216;52.220;5.134;2022-11-04T16:06:14;9.52;;;5.00;;
60372;SDS011;46216;52.220;5.134;2022-11-04T16:08:39;6.85;;;4.85;;
60372;SDS011;46216;52.220;5.134;2022-11-04T16:11:09;8.32;;;3.83;;
60372;SDS011;46216;52.220;5.134;2022-11-04T16:13:37;5.07;;;3.00;;
60372;SDS011;46216;52.220;5.134;2022-11-04T16:16:05;3.42;;;2.90;;
60372;SDS011;46216;52.220;5.134;2022-11-04T16:18:54;6.25;;;3.10;;
60372;SDS011;46216;52.220;5.134;2022-11-04T16:21:29;7.80;;;3.20;;
60372;SDS011;46216;52.220;5.134;2022-11-04T16:24:03;6.50;;;3.30;;
60372;SDS011;46216;52.220;5.134;2022-11-04T16:26:37;6.82;;;3.55;;
60372;SDS011;46216;52.220;5.134;2022-11-04T16:29:06;6.30;;;4.32;;
60372;SDS011;46216;52.220;5.134;2022-11-04T16:31:34;6.75;;;6.05;;
60372;SDS011;46216;52.220;5.134;2022-11-04T16:34:01;8.77;;;6.72;;
60372;SDS011;46216;52.220;5.134;2022-11-04T16:36:27;9.35;;;6.78;;
60372;SDS011;46216;52.220;5.134;2022-11-04T16:41:19;8.32;;;5.47;;
60372;SDS011;46216;52.220;5.134;2022-11-04T16:43:46;7.35;;;5.03;;
60372;SDS011;46216;52.220;5.134;2022-11-04T16:46:13;8.07;;;4.32;;
60372;SDS011;46216;52.220;5.134;2022-11-04T16:48:38;6.15;;;3.13;;
60372;SDS011;46216;52.220;5.134;2022-11-04T16:51:04;5.80;;;3.42;;
60372;SDS011;46216;52.220;5.134;2022-11-04T16:53:29;5.95;;;3.70;;
60372;SDS011;46216;52.220;5.134;2022-11-04T16:55:56;7.53;;;4.95;;
60372;SDS011;46216;52.220;5.134;2022-11-04T16:58:23;12.80;;;6.72;;
60372;SDS011;46216;52.220;5.134;2022-11-04T17:00:49;8.13;;;6.30;;
60372;SDS011;46216;52.220;5.134;2022-11-04T17:03:15;11.40;;;6.97;;
60372;SDS011;46216;52.220;5.134;2022-11-04T17:05:46;8.50;;;5.30;;
60372;SDS011;46216;52.220;5.134;2022-11-04T17:08:15;8.48;;;4.47;;
60372;SDS011;46216;52.220;5.134;2022-11-04T17:10:40;9.75;;;4.20;;
60372;SDS011;46216;52.220;5.134;2022-11-04T17:13:08;7.10;;;4.30;;
60372;SDS011;46216;52.220;5.134;2022-11-04T17:15:34;6.88;;;4.05;;
60372;SDS011;46216;52.220;5.134;2022-11-04T17:17:59;8.27;;;4.05;;
60372;SDS011;46216;52.220;5.134;2022-11-04T17:20:25;6.40;;;4.00;;
60372;SDS011;46216;52.220;5.134;2022-11-04T17:22:50;9.48;;;4.22;;
60372;SDS011;46216;52.220;5.134;2022-11-04T17:25:27;8.63;;;5.10;;
60372;SDS011;46216;52.220;5.134;2022-11-04T17:27:53;6.72;;;4.80;;